Time;durP1;ratioP1;P1;durP2;ratioP2;P2;SDS_P1;SDS_P2;PMS_P1;PMS_P2;Temp;Humidity;BMP_temperature;BMP_pressure;BME280_temperature;BME280_humidity;BME280_pressure;Samples;Min_cycle;Max_cycle;Signal;HPM_P1;HPM_P2
2022/07/18 00:00:12;;;;;;;2.70;1.10;;;;;;;24.98;28.49;100151.16;5095552;28;20043;-89
2022/07/18 00:02:38;;;;;;;0.95;0.65;;;;;;;24.83;28.60;100131.47;5106915;28;20035;-88
2022/07/18 00:05:04;;;;;;;3.40;0.80;;;;;;;24.73;28.77;100127.66;5089851;28;20505;-89
2022/07/18 00:07:30;;;;;;;0.88;0.50;;;;;;;24.98;29.13;100162.81;5092993;28;20034;-89
2022/07/18 00:09:55;;;;;;;0.77;0.75;;;;;;;24.98;28.98;100153.84;5070007;28;20036;-89
2022/07/18 00:12:21;;;;;;;2.92;1.13;;;;;;;24.97;29.63;100171.84;5088087;28;20079;-89
2022/07/18 00:14:46;;;;;;;2.78;1.60;;;;;;;24.77;30.57;100146.22;5087964;28;20097;-89
2022/07/18 00:17:12;;;;;;;1.77;1.05;;;;;;;24.63;30.45;100152.53;5069319;28;20036;-89
2022/07/18 00:19:38;;;;;;;1.50;0.93;;;;;;;24.73;30.13;100171.69;5085092;28;20048;-88
2022/07/18 00:22:04;;;;;;;4.95;0.68;;;;;;;24.49;30.43;100177.69;5111806;27;20031;-89
2022/07/18 00:24:31;;;;;;;2.22;0.93;;;;;;;24.38;30.67;100166.75;5128587;27;20118;-88
2022/07/18 00:26:57;;;;;;;3.42;0.65;;;;;;;24.00;31.59;100153.91;5102800;27;20031;-88
2022/07/18 00:29:23;;;;;;;2.20;0.57;;;;;;;23.74;32.43;100180.66;5109388;27;20043;-88
2022/07/18 00:31:49;;;;;;;0.90;0.60;;;;;;;23.47;32.69;100144.66;5128157;27;20038;-88
2022/07/18 00:34:14;;;;;;;6.85;1.08;;;;;;;23.50;33.17;100166.00;5107782;27;20038;-87
2022/07/18 00:36:40;;;;;;;1.88;0.73;;;;;;;23.29;33.42;100144.81;5124376;27;20065;-87
2022/07/18 00:39:06;;;;;;;0.60;0.52;;;;;;;23.33;33.49;100149.06;5089244;28;20043;-87
2022/07/18 00:41:31;;;;;;;0.95;0.65;;;;;;;23.24;34.11;100157.69;5108123;28;20094;-88
2022/07/18 00:43:57;;;;;;;1.08;0.80;;;;;;;22.85;35.05;100151.00;5111903;27;20054;-88
2022/07/18 00:46:24;;;;;;;1.63;1.00;;;;;;;22.66;34.87;100137.75;5107477;28;20032;-88
2022/07/18 00:48:50;;;;;;;0.80;0.60;;;;;;;22.56;34.91;100166.16;5119928;27;20035;-88
2022/07/18 00:51:16;;;;;;;3.72;1.02;;;;;;;22.28;34.35;100138.97;5103091;28;20100;-87
2022/07/18 00:53:43;;;;;;;0.63;0.60;;;;;;;22.35;34.69;100145.78;5111799;27;20039;-88
2022/07/18 00:56:09;;;;;;;1.10;0.68;;;;;;;22.19;33.93;100158.31;5117875;27;20035;-87
2022/07/18 00:58:35;;;;;;;1.08;0.70;;;;;;;22.21;33.69;100132.22;5107724;28;20028;-87
2022/07/18 01:03:44;;;;;;;1.13;0.75;;;;;;;22.15;32.12;100146.88;5107148;27;20058;-87
2022/07/18 01:06:10;;;;;;;1.95;1.10;;;;;;;22.59;31.50;100187.47;5116057;27;20482;-87
2022/07/18 01:08:37;;;;;;;1.23;0.60;;;;;;;22.47;31.40;100151.41;5128065;27;20035;-90
2022/07/18 01:11:03;;;;;;;1.42;1.23;;;;;;;22.31;31.15;100109.28;5096805;28;20116;-88
2022/07/18 01:13:29;;;;;;;3.65;1.20;;;;;;;22.58;30.52;100177.66;5111303;27;20027;-87
2022/07/18 01:15:57;;;;;;;0.93;0.75;;;;;;;22.50;30.45;100173.59;5121094;27;20092;-87
2022/07/18 01:18:23;;;;;;;1.15;0.60;;;;;;;22.27;30.87;100182.06;5106663;28;20163;-87
2022/07/18 01:20:48;;;;;;;1.50;0.68;;;;;;;22.52;29.97;100182.44;5101534;28;20130;-88
2022/07/18 01:23:14;;;;;;;1.17;0.50;;;;;;;22.56;30.08;100183.13;5125496;27;20032;-88
2022/07/18 01:25:39;;;;;;;1.25;0.65;;;;;;;22.36;30.07;100152.00;5119378;28;20038;-89
2022/07/18 01:28:05;;;;;;;1.00;0.90;;;;;;;22.62;29.56;100196.22;5107191;28;20054;-89
2022/07/18 01:30:31;;;;;;;1.75;0.70;;;;;;;22.37;30.17;100155.56;5107359;28;20495;-89
2022/07/18 01:33:05;;;;;;;1.58;0.80;;;;;;;22.67;30.27;100199.50;5089691;28;20046;-89
2022/07/18 01:35:32;;;;;;;1.38;0.50;;;;;;;22.26;30.17;100194.63;5086883;28;20072;-89
2022/07/18 01:37:59;;;;;;;0.38;0.32;;;;;;;21.93;30.24;100174.03;5088693;28;20550;-89
2022/07/18 01:40:25;;;;;;;0.45;0.45;;;;;;;22.18;29.88;100186.13;5088441;28;20036;-89
2022/07/18 01:42:51;;;;;;;1.05;0.55;;;;;;;22.16;30.21;100147.72;5107106;28;20028;-89
2022/07/18 01:45:18;;;;;;;1.17;0.73;;;;;;;22.35;30.12;100194.16;5088265;28;20516;-88
2022/07/18 01:47:43;;;;;;;1.25;0.70;;;;;;;22.09;30.52;100192.00;5106914;28;20526;-88
2022/07/18 01:50:10;;;;;;;0.65;0.50;;;;;;;22.12;30.40;100178.41;5106994;28;20145;-88
2022/07/18 01:52:37;;;;;;;0.63;0.50;;;;;;;22.21;30.39;100180.56;5112681;28;20575;-89
2022/07/18 01:55:03;;;;;;;0.43;0.43;;;;;;;22.30;30.15;100160.38;5104480;28;20107;-88
2022/07/18 01:57:29;;;;;;;0.40;0.40;;;;;;;21.88;30.95;100186.00;5106713;28;20156;-88
2022/07/18 01:59:54;;;;;;;0.82;0.80;;;;;;;21.86;30.91;100179.81;5106614;28;20154;-88
2022/07/18 02:02:20;;;;;;;0.65;0.60;;;;;;;21.85;31.18;100187.03;5106660;28;20513;-89
2022/07/18 02:05:01;;;;;;;0.30;0.25;;;;;;;21.59;30.90;100146.31;5106642;28;20031;-89
2022/07/18 02:07:32;;;;;;;2.33;0.60;;;;;;;21.69;31.30;100207.56;5107273;28;20095;-88
2022/07/18 02:09:58;;;;;;;0.50;0.50;;;;;;;21.54;31.67;100187.81;5125167;28;20039;-88
2022/07/18 02:12:25;;;;;;;0.43;0.43;;;;;;;21.31;32.59;100199.72;5118235;27;20042;-88
2022/07/18 02:14:51;;;;;;;0.65;0.55;;;;;;;20.89;32.39;100180.34;5126962;27;20524;-89
2022/07/18 02:17:17;;;;;;;0.93;0.68;;;;;;;20.98;32.84;100195.97;5109483;28;20408;-88
2022/07/18 02:19:43;;;;;;;1.13;1.02;;;;;;;20.93;32.81;100172.09;5109146;28;20070;-90
2022/07/18 02:22:08;;;;;;;0.43;0.43;;;;;;;21.23;32.55;100200.09;5117935;28;20719;-89
2022/07/18 02:24:34;;;;;;;1.60;0.60;;;;;;;21.06;32.61;100196.44;5127354;28;20035;-89
2022/07/18 02:27:00;;;;;;;3.20;0.75;;;;;;;21.06;32.37;100171.47;5129297;27;20076;-88
2022/07/18 02:29:26;;;;;;;0.63;0.57;;;;;;;21.06;32.64;100160.72;5126120;27;20031;-88
2022/07/18 02:32:01;;;;;;;2.50;0.77;;;;;;;21.13;32.20;100170.19;5126141;27;20781;-89
2022/07/18 02:34:27;;;;;;;0.57;0.47;;;;;;;21.34;32.42;100210.28;5111760;27;20218;-88
2022/07/18 02:36:53;;;;;;;0.43;0.43;;;;;;;20.98;32.49;100166.50;5110391;28;20390;-90
2022/07/18 02:39:19;;;;;;;1.13;0.68;;;;;;;21.16;32.40;100196.84;5110170;28;20112;-90
2022/07/18 02:41:46;;;;;;;0.47;0.47;;;;;;;21.45;31.94;100202.53;5109917;28;20059;-88
2022/07/18 02:44:12;;;;;;;0.77;0.45;;;;;;;21.38;32.08;100218.09;5118087;27;20114;-89
2022/07/18 02:46:37;;;;;;;1.35;0.70;;;;;;;21.24;32.27;100217.91;5114507;27;20130;-88
2022/07/18 02:49:03;;;;;;;0.88;0.70;;;;;;;21.07;32.35;100181.25;5124376;27;20031;-87
2022/07/18 02:51:28;;;;;;;0.80;0.65;;;;;;;21.29;32.60;100208.69;5110443;28;20031;-89
2022/07/18 02:53:55;;;;;;;0.77;0.57;;;;;;;21.45;32.66;100224.00;5109766;27;20042;-90
2022/07/18 02:56:20;;;;;;;1.98;1.38;;;;;;;21.38;32.46;100214.53;5092827;28;20054;-88
2022/07/18 02:58:46;;;;;;;2.75;1.17;;;;;;;21.28;33.20;100208.78;5110809;28;20016;-88
2022/07/18 03:01:11;;;;;;;1.08;0.75;;;;;;;21.75;32.68;100235.00;5116505;27;20035;-88
2022/07/18 03:03:46;;;;;;;1.33;0.95;;;;;;;21.43;32.92;100204.44;5126933;27;20035;-89
2022/07/18 03:06:12;;;;;;;1.05;0.80;;;;;;;21.59;33.67;100221.50;5091700;28;20024;-88
2022/07/18 03:08:37;;;;;;;0.88;0.80;;;;;;;21.06;34.36;100182.19;5123435;27;20047;-88
2022/07/18 03:11:03;;;;;;;1.10;0.70;;;;;;;21.11;34.65;100231.09;5109756;27;20031;-89
2022/07/18 03:13:28;;;;;;;0.57;0.52;;;;;;;21.00;35.84;100239.66;5118981;27;20527;-89
2022/07/18 03:15:56;;;;;;;2.55;1.85;;;;;;;20.50;35.68;100203.66;5110604;28;20036;-91
2022/07/18 03:18:22;;;;;;;0.70;0.70;;;;;;;20.72;35.55;100191.91;5110278;28;20038;-88
2022/07/18 03:20:48;;;;;;;2.63;1.58;;;;;;;20.56;36.19;100218.56;5109637;28;20047;-90
2022/07/18 03:23:13;;;;;;;1.23;0.90;;;;;;;20.17;36.52;100168.59;5110438;27;20134;-89
2022/07/18 03:25:39;;;;;;;1.33;1.02;;;;;;;20.31;36.18;100187.59;5110609;28;20092;-90
2022/07/18 03:28:07;;;;;;;2.35;0.88;;;;;;;20.04;36.92;100179.91;5111111;27;20023;-87
2022/07/18 03:30:35;;;;;;;1.08;0.85;;;;;;;20.70;36.46;100204.53;5109759;27;20019;-89
2022/07/18 03:33:01;;;;;;;0.98;0.88;;;;;;;20.82;36.38;100240.56;5109695;27;20044;-90
2022/07/18 03:35:26;;;;;;;1.45;1.15;;;;;;;20.54;36.63;100212.41;5091284;28;20429;-89
2022/07/18 03:37:55;;;;;;;1.25;1.15;;;;;;;20.30;36.82;100187.66;5108936;27;20042;-91
2022/07/18 03:40:20;;;;;;;1.00;0.70;;;;;;;20.46;36.57;100195.84;5091126;28;20046;-88
2022/07/18 03:42:46;;;;;;;0.88;0.57;;;;;;;20.34;36.32;100187.44;5125931;27;20035;-88
2022/07/18 03:45:11;;;;;;;1.40;1.30;;;;;;;20.44;35.44;100177.16;5111304;27;20035;-87
2022/07/18 03:47:37;;;;;;;0.70;0.70;;;;;;;20.73;35.64;100245.44;5118956;27;20038;-83
2022/07/18 03:50:03;;;;;;;0.88;0.55;;;;;;;20.89;35.79;100248.25;5125855;27;20137;-86
2022/07/18 03:52:28;;;;;;;1.95;1.15;;;;;;;21.09;35.52;100251.75;5090070;28;20063;-87
2022/07/18 03:54:54;;;;;;;1.33;0.85;;;;;;;20.94;35.34;100223.88;5090804;28;20074;-83
2022/07/18 03:57:20;;;;;;;0.90;0.77;;;;;;;21.21;34.89;100236.84;5116024;27;20084;-89
2022/07/18 03:59:45;;;;;;;0.50;0.50;;;;;;;21.36;34.73;100262.03;5120220;27;20036;-89
2022/07/18 04:02:11;;;;;;;4.30;0.52;;;;;;;21.55;33.36;100267.34;5108277;28;20478;-90
2022/07/18 04:04:36;;;;;;;8.82;2.38;;;;;;;21.40;33.63;100226.06;5109298;27;20474;-93
2022/07/18 04:07:03;;;;;;;2.00;0.70;;;;;;;21.54;33.51;100220.00;5089262;28;20035;-87
2022/07/18 04:09:29;;;;;;;1.58;0.90;;;;;;;21.69;33.36;100231.75;5108862;28;20031;-90
2022/07/18 04:11:54;;;;;;;2.00;1.20;;;;;;;21.77;33.30;100221.47;5089886;28;20038;-85
2022/07/18 04:14:22;;;;;;;1.20;0.63;;;;;;;22.18;33.17;100261.34;5122530;27;20035;-87
2022/07/18 04:16:48;;;;;;;3.03;1.17;;;;;;;22.12;32.70;100205.25;5124072;27;20024;-89
2022/07/18 04:19:17;;;;;;;1.05;0.82;;;;;;;21.89;33.11;100226.19;5088946;27;20035;-89
2022/07/18 04:21:44;;;;;;;1.13;0.73;;;;;;;22.42;32.17;100290.56;5101564;27;20062;-90
2022/07/18 04:24:09;;;;;;;3.22;1.25;;;;;;;22.42;32.31;100255.63;5109682;27;20096;-89
2022/07/18 04:26:38;;;;;;;2.90;1.63;;;;;;;22.43;32.10;100225.97;5109283;28;20568;-90
2022/07/18 04:29:04;;;;;;;1.10;0.70;;;;;;;22.92;31.89;100259.09;5107308;28;20502;-87
2022/07/18 04:44:37;;;;;;;1.20;0.80;;;;;;;23.55;34.17;100268.88;5009261;28;20080;-90
2022/07/18 04:47:36;;;;;;;0.65;0.50;;;;;;;23.68;35.07;100326.44;5005981;28;20049;-91
2022/07/18 04:50:03;;;;;;;1.77;0.80;;;;;;;23.78;34.04;100303.38;5071732;28;20043;-86
2022/07/18 04:52:40;;;;;;;0.70;0.70;;;;;;;23.88;33.66;100284.88;5113286;27;20035;-87
2022/07/18 04:55:07;;;;;;;0.88;0.57;;;;;;;24.09;33.33;100319.53;5128104;27;20035;-88
2022/07/18 04:57:34;;;;;;;1.35;0.70;;;;;;;24.16;33.09;100314.63;5126073;27;20054;-88
2022/07/18 05:00:00;;;;;;;0.30;0.30;;;;;;;24.13;30.93;100307.59;5092585;27;20039;-87
2022/07/18 05:02:26;;;;;;;3.42;1.00;;;;;;;24.30;30.77;100302.03;5109684;27;20054;-87
2022/07/18 05:04:51;;;;;;;0.63;0.45;;;;;;;24.45;30.88;100319.06;5107547;27;20451;-89
2022/07/18 05:07:17;;;;;;;1.02;0.70;;;;;;;24.48;32.74;100315.28;5108745;27;20058;-88
2022/07/18 05:09:42;;;;;;;0.80;0.60;;;;;;;24.40;31.34;100323.00;5107055;28;20489;-89
2022/07/18 05:12:08;;;;;;;1.52;0.82;;;;;;;24.01;30.58;100287.66;5109978;27;20036;-88
2022/07/18 05:14:34;;;;;;;1.48;0.57;;;;;;;24.09;30.79;100320.38;5107349;28;20037;-89
2022/07/18 05:16:59;;;;;;;0.63;0.60;;;;;;;24.23;31.80;100308.75;5120817;27;20027;-88
2022/07/18 05:19:25;;;;;;;1.48;0.98;;;;;;;24.16;31.17;100299.34;5113935;27;20052;-86
2022/07/18 05:21:50;;;;;;;1.00;0.47;;;;;;;24.24;29.87;100291.63;5072662;28;20031;-87
2022/07/18 05:24:16;;;;;;;0.45;0.43;;;;;;;24.22;28.32;100290.88;5072355;28;20043;-88
2022/07/18 05:26:42;;;;;;;0.73;0.73;;;;;;;24.03;29.25;100284.88;5088127;28;20028;-88
2022/07/18 05:29:07;;;;;;;0.60;0.35;;;;;;;23.86;28.38;100283.22;5086395;28;20537;-85
2022/07/18 05:31:33;;;;;;;3.97;1.98;;;;;;;24.28;27.78;100287.78;5105598;28;20046;-89
2022/07/18 05:33:59;;;;;;;3.97;1.98;;;;;;;24.21;28.82;100251.38;5079622;28;20040;-87
2022/07/18 05:36:24;;;;;;;0.40;0.32;;;;;;;24.20;28.05;100246.09;5086614;28;20067;-89
2022/07/18 05:38:50;;;;;;;1.23;0.73;;;;;;;24.22;28.91;100254.94;5073428;28;20692;-87
2022/07/18 05:41:15;;;;;;;0.20;0.20;;;;;;;24.68;28.24;100297.88;5094833;28;20096;-91
2022/07/18 05:43:41;;;;;;;2.13;0.57;;;;;;;24.70;28.06;100305.88;5085941;28;20036;-88
2022/07/18 06:25:34;;;;;;;0.65;0.43;;;;;;;25.42;28.62;100271.44;5109349;27;20432;-88
2022/07/18 06:28:00;;;;;;;0.65;0.40;;;;;;;26.51;26.69;100281.00;5104556;28;20116;-88
2022/07/18 06:30:25;;;;;;;1.55;0.68;;;;;;;26.68;26.06;100272.59;5086172;28;20046;-89
2022/07/18 06:32:51;;;;;;;0.35;0.30;;;;;;;26.95;25.82;100306.69;5086538;28;20032;-90
2022/07/18 06:35:17;;;;;;;1.00;0.35;;;;;;;26.76;25.17;100272.88;5086542;28;20023;-89
2022/07/18 06:37:43;;;;;;;0.57;0.40;;;;;;;26.92;25.16;100269.03;5104433;28;20040;-89
2022/07/18 06:40:09;;;;;;;0.63;0.63;;;;;;;26.98;26.55;100282.97;5086139;28;20392;-89
2022/07/18 06:42:35;;;;;;;1.25;0.90;;;;;;;26.58;25.28;100296.69;5104640;28;20059;-91
2022/07/18 06:45:01;;;;;;;0.85;0.45;;;;;;;26.83;25.32;100319.28;5104802;28;20046;-89
2022/07/18 06:47:26;;;;;;;0.52;0.43;;;;;;;26.77;25.62;100274.63;5086050;28;20161;-90
2022/07/18 06:49:52;;;;;;;1.70;0.63;;;;;;;26.79;25.54;100266.38;5086485;28;20039;-91
2022/07/18 06:52:17;;;;;;;0.98;0.82;;;;;;;27.22;25.61;100265.00;5086104;28;20027;-92
2022/07/18 06:54:43;;;;;;;1.05;0.57;;;;;;;27.50;25.47;100328.81;5085406;28;20036;-92
2022/07/18 06:57:09;;;;;;;0.80;0.70;;;;;;;27.46;26.45;100294.81;5085923;28;20505;-89
2022/07/18 06:59:35;;;;;;;0.98;0.68;;;;;;;27.66;25.29;100304.97;5085394;28;20537;-88
2022/07/18 07:02:02;;;;;;;1.90;1.10;;;;;;;27.72;24.15;100281.09;5103687;28;20028;-90
2022/07/18 07:04:27;;;;;;;1.10;0.88;;;;;;;27.67;24.32;100276.03;5104161;28;20051;-88
2022/07/18 07:06:53;;;;;;;0.90;0.55;;;;;;;27.83;24.06;100295.53;5104211;28;20501;-89
2022/07/18 07:09:18;;;;;;;1.25;0.98;;;;;;;28.28;23.88;100292.03;5104274;28;20035;-94
2022/07/18 07:11:44;;;;;;;0.90;0.70;;;;;;;28.36;24.68;100324.88;5103413;28;20044;-93
2022/07/18 07:14:09;;;;;;;0.57;0.52;;;;;;;28.17;23.61;100273.91;5104517;28;20432;-92
2022/07/18 07:16:38;;;;;;;0.95;0.70;;;;;;;28.62;23.63;100258.66;5103498;28;20036;-91
2022/07/18 07:19:03;;;;;;;1.65;1.25;;;;;;;28.64;23.66;100270.22;5104555;28;20095;-91
2022/07/18 07:21:30;;;;;;;1.13;0.82;;;;;;;28.38;23.75;100263.19;5103991;28;20031;-93
2022/07/18 07:23:55;;;;;;;1.10;0.68;;;;;;;28.64;23.96;100294.66;5089172;28;20053;-90
2022/07/18 07:26:21;;;;;;;1.23;0.73;;;;;;;28.74;23.59;100265.78;5104712;28;20028;-92
2022/07/18 07:28:46;;;;;;;0.77;0.60;;;;;;;29.22;22.35;100261.84;5103132;28;20058;-90
2022/07/18 07:31:12;;;;;;;5.32;0.90;;;;;;;29.34;23.67;100244.50;5103493;28;20032;-92
2022/07/18 07:33:37;;;;;;;1.48;0.80;;;;;;;29.51;22.55;100269.38;5103197;28;20618;-91
2022/07/18 07:36:04;;;;;;;2.72;1.30;;;;;;;30.20;21.83;100276.13;5093356;28;20036;-89
2022/07/18 07:38:30;;;;;;;2.08;0.90;;;;;;;30.29;21.61;100256.25;5087836;28;20024;-92
2022/07/18 07:40:55;;;;;;;1.63;0.43;;;;;;;29.74;21.25;100249.22;5087749;28;20047;-90
2022/07/18 07:43:21;;;;;;;1.45;0.85;;;;;;;29.97;23.22;100241.81;5088361;28;20044;-92
2022/07/18 07:45:50;;;;;;;0.63;0.50;;;;;;;30.31;21.67;100287.78;5088386;28;20070;-90
2022/07/18 07:48:16;;;;;;;3.38;1.58;;;;;;;30.16;21.63;100251.06;5088342;28;20028;-90
2022/07/18 07:50:42;;;;;;;7.43;2.08;;;;;;;30.47;22.57;100284.59;5088301;28;20040;-90
2022/07/18 07:53:08;;;;;;;2.38;0.98;;;;;;;30.26;20.54;100276.47;5088097;28;20039;-90
2022/07/18 07:55:34;;;;;;;1.73;1.30;;;;;;;30.39;21.90;100288.97;5088371;28;20126;-91
2022/07/18 07:58:00;;;;;;;2.38;0.90;;;;;;;30.17;20.22;100269.13;5087738;28;20093;-89
2022/07/18 08:00:27;;;;;;;0.55;0.47;;;;;;;30.55;20.84;100266.72;5089471;28;20032;-90
2022/07/18 08:02:57;;;;;;;1.48;1.05;;;;;;;31.01;19.73;100247.06;5088180;28;20485;-89
2022/07/18 08:05:24;;;;;;;1.88;1.00;;;;;;;31.12;18.97;100264.28;5087822;28;20040;-88
2022/07/18 08:07:50;;;;;;;1.27;0.65;;;;;;;31.89;19.43;100297.97;5087701;28;20035;-90
2022/07/18 08:10:15;;;;;;;2.30;1.48;;;;;;;31.88;19.83;100291.63;5087057;28;20032;-89
2022/07/18 08:12:41;;;;;;;1.10;1.00;;;;;;;32.40;21.15;100301.31;5089397;28;20055;-89
2022/07/18 08:15:08;;;;;;;2.72;0.77;;;;;;;32.64;19.09;100255.25;5088024;28;20560;-91
2022/07/18 08:17:34;;;;;;;2.58;0.98;;;;;;;32.62;18.93;100259.94;5087444;28;20028;-89
2022/07/18 08:19:59;;;;;;;3.35;1.00;;;;;;;32.30;18.70;100272.19;5087858;28;20096;-89
2022/07/18 08:22:25;;;;;;;3.63;2.58;;;;;;;32.05;19.72;100275.53;5088892;28;20142;-88
2022/07/18 08:24:50;;;;;;;2.20;1.88;;;;;;;31.62;19.61;100242.31;5073788;28;20056;-89
2022/07/18 08:27:16;;;;;;;1.00;0.90;;;;;;;32.24;19.82;100255.53;5068121;28;20040;-89
2022/07/18 08:29:41;;;;;;;1.38;0.50;;;;;;;32.39;18.82;100289.50;5068439;28;20062;-89
2022/07/18 08:32:08;;;;;;;1.33;0.68;;;;;;;32.63;18.70;100316.28;5050747;28;20094;-89
2022/07/18 08:34:33;;;;;;;0.95;0.60;;;;;;;32.87;19.41;100241.13;5068355;28;20024;-89
2022/07/18 08:36:59;;;;;;;1.52;0.98;;;;;;;33.39;19.26;100294.28;5050295;28;20444;-89
2022/07/18 08:39:24;;;;;;;1.30;1.00;;;;;;;33.62;18.61;100245.44;5050228;28;20155;-89
2022/07/18 08:41:59;;;;;;;8.02;1.85;;;;;;;33.56;20.43;100274.28;5050606;28;20097;-89
2022/07/18 08:44:28;;;;;;;1.40;0.70;;;;;;;33.85;20.05;100315.03;5050786;28;20094;-89
2022/07/18 08:46:57;;;;;;;1.08;0.60;;;;;;;33.45;19.12;100290.94;5049737;28;20060;-89
2022/07/18 08:49:23;;;;;;;1.35;0.80;;;;;;;32.54;19.66;100278.97;5049878;28;20509;-89
2022/07/18 08:51:49;;;;;;;0.68;0.63;;;;;;;33.07;19.26;100260.13;5068013;28;20090;-88
2022/07/18 08:54:15;;;;;;;0.90;0.63;;;;;;;33.34;20.67;100278.38;5067684;28;20068;-87
2022/07/18 08:56:41;;;;;;;0.50;0.50;;;;;;;31.80;20.25;100290.69;5068382;28;20103;-90
2022/07/18 08:59:07;;;;;;;0.75;0.60;;;;;;;32.37;19.51;100275.16;5067898;28;20117;-89
2022/07/18 09:01:33;;;;;;;0.93;0.73;;;;;;;32.40;23.37;100263.09;5050153;28;20064;-89
2022/07/18 09:04:18;;;;;;;1.25;0.68;;;;;;;32.74;19.53;100257.91;5067719;28;20145;-88
2022/07/18 09:06:45;;;;;;;0.60;0.50;;;;;;;32.39;21.18;100259.47;5068066;28;20097;-88
2022/07/18 09:09:14;;;;;;;1.30;1.17;;;;;;;32.63;22.28;100255.34;5067411;28;20032;-89
2022/07/18 09:12:09;;;;;;;0.90;0.70;;;;;;;33.32;22.33;100299.50;5068194;28;20024;-86
2022/07/18 09:14:43;;;;;;;1.08;0.80;;;;;;;33.43;19.65;100296.56;5028363;28;20398;-86
2022/07/18 09:17:11;;;;;;;2.25;1.30;;;;;;;33.49;22.55;100295.03;5067571;28;20032;-86
2022/07/18 09:19:59;;;;;;;0.95;0.70;;;;;;;33.31;19.40;100295.06;5067483;28;20024;-88
2022/07/18 09:22:27;;;;;;;1.75;1.00;;;;;;;33.27;22.33;100296.38;5054082;28;20506;-87
2022/07/18 09:24:54;;;;;;;0.68;0.50;;;;;;;33.69;19.12;100293.88;5066860;28;20564;-89
2022/07/18 09:27:44;;;;;;;1.10;0.68;;;;;;;33.39;19.46;100256.03;5049624;28;20036;-87
2022/07/18 09:30:17;;;;;;;0.65;0.50;;;;;;;33.29;19.66;100264.28;5067420;28;20060;-88
2022/07/18 09:32:46;;;;;;;1.13;0.82;;;;;;;33.60;20.65;100267.47;5049331;28;20041;-89
2022/07/18 09:35:20;;;;;;;1.90;1.00;;;;;;;33.54;19.07;100273.59;5067066;28;20527;-89
2022/07/18 09:37:57;;;;;;;1.60;0.93;;;;;;;33.40;18.72;100291.41;5067609;28;20037;-87
2022/07/18 09:40:30;;;;;;;1.70;0.85;;;;;;;32.95;19.20;100286.78;5067090;28;20513;-87
2022/07/18 09:42:59;;;;;;;3.25;1.92;;;;;;;32.64;19.52;100282.53;5049527;28;20033;-88
2022/07/18 09:45:31;;;;;;;0.82;0.68;;;;;;;32.59;20.01;100273.91;5067514;28;20105;-89
2022/07/18 09:48:02;;;;;;;2.13;1.27;;;;;;;33.12;19.37;100285.09;5048775;28;20028;-89
2022/07/18 09:50:36;;;;;;;1.45;1.00;;;;;;;33.82;17.59;100281.69;5048506;28;20040;-88
2022/07/18 09:53:24;;;;;;;1.30;0.70;;;;;;;33.63;19.12;100283.56;5049410;28;20033;-87
2022/07/18 09:55:56;;;;;;;2.00;1.00;;;;;;;32.52;20.41;100252.81;5048855;28;20504;-87
2022/07/18 09:58:24;;;;;;;1.15;0.70;;;;;;;33.42;18.42;100256.56;5048910;28;20033;-90
2022/07/18 10:00:50;;;;;;;2.97;0.80;;;;;;;32.95;18.88;100254.00;5049177;28;20032;-88
2022/07/18 10:03:18;;;;;;;1.35;0.68;;;;;;;32.80;19.72;100221.78;5048906;28;20093;-88
2022/07/18 10:05:47;;;;;;;1.35;0.70;;;;;;;33.01;18.81;100262.47;5066968;28;20090;-87
2022/07/18 10:08:15;;;;;;;2.08;0.80;;;;;;;32.85;19.59;100245.91;5066677;28;20443;-88
2022/07/18 10:10:43;;;;;;;3.05;0.85;;;;;;;32.97;20.19;100246.53;5066967;28;20118;-92
2022/07/18 10:13:09;;;;;;;2.17;1.23;;;;;;;32.79;19.02;100232.84;5067011;28;20040;-87
2022/07/18 10:15:37;;;;;;;1.60;0.90;;;;;;;32.49;19.49;100246.66;5066900;28;20662;-90
2022/07/18 10:18:05;;;;;;;1.17;0.70;;;;;;;32.69;19.32;100245.72;5049073;28;20043;-87
2022/07/18 10:20:39;;;;;;;0.85;0.68;;;;;;;32.71;19.45;100238.25;5048383;28;20041;-89
2022/07/18 10:23:12;;;;;;;1.10;0.93;;;;;;;33.33;18.99;100243.84;5048640;28;20070;-89
2022/07/18 10:25:38;;;;;;;2.55;1.23;;;;;;;32.61;22.47;100210.94;5067036;28;20068;-92
2022/07/18 10:28:07;;;;;;;1.00;0.80;;;;;;;32.46;22.29;100189.63;5066965;28;20036;-91
2022/07/18 10:30:35;;;;;;;1.45;0.90;;;;;;;33.06;22.33;100231.06;5049051;28;20037;-94
2022/07/18 10:33:40;;;;;;;2.55;1.20;;;;;;;32.64;21.97;100200.63;5051139;28;20036;-92
2022/07/18 10:36:23;;;;;;;2.00;1.10;;;;;;;32.52;25.11;100223.66;5048474;28;20039;-91
2022/07/18 10:39:09;;;;;;;1.80;1.23;;;;;;;33.39;21.68;100239.63;5066739;28;20036;-90
2022/07/18 10:41:41;;;;;;;2.65;1.38;;;;;;;32.66;24.44;100231.34;5066676;28;20029;-89
2022/07/18 10:44:29;;;;;;;1.02;0.80;;;;;;;33.17;22.26;100231.69;5066473;28;20028;-89
2022/07/18 10:47:12;;;;;;;1.85;1.13;;;;;;;33.22;23.26;100234.00;5050528;28;20041;-91
2022/07/18 10:49:52;;;;;;;2.92;1.08;;;;;;;33.24;21.61;100237.41;5066788;28;20027;-91
2022/07/18 10:52:32;;;;;;;3.15;1.00;;;;;;;33.06;23.05;100220.13;5048527;28;20494;-90
2022/07/18 10:55:08;;;;;;;1.20;0.95;;;;;;;33.39;22.86;100231.41;5048302;28;20036;-90
2022/07/18 10:57:36;;;;;;;2.17;1.35;;;;;;;32.62;23.24;100185.38;5066770;28;20382;-87
2022/07/18 11:00:13;;;;;;;2.10;0.95;;;;;;;33.25;22.62;100222.75;5066390;28;20021;-88
2022/07/18 11:03:06;;;;;;;1.75;1.10;;;;;;;32.20;23.91;100197.69;5066664;28;20111;-87
2022/07/18 11:05:33;;;;;;;1.77;0.95;;;;;;;32.49;24.76;100223.97;5055021;28;20052;-85
2022/07/18 11:07:59;;;;;;;1.75;0.85;;;;;;;32.98;22.86;100215.47;5048397;28;20033;-87
2022/07/18 11:13:31;;;;;;;2.03;1.05;;;;;;;33.06;22.63;100221.03;5070063;28;20395;-86
2022/07/18 11:16:10;;;;;;;1.52;0.88;;;;;;;33.17;22.52;100211.72;5069980;28;20032;-85
2022/07/18 11:18:42;;;;;;;2.47;1.40;;;;;;;33.35;22.24;100209.88;5070127;28;20040;-86
2022/07/18 11:21:28;;;;;;;0.95;0.82;;;;;;;33.29;21.29;100191.38;5052145;28;20094;-86
2022/07/18 11:24:01;;;;;;;2.55;1.23;;;;;;;32.84;22.11;100192.28;5069372;28;20048;-84
2022/07/18 11:26:27;;;;;;;1.63;1.15;;;;;;;33.31;24.13;100192.06;5069834;28;20119;-85
2022/07/18 11:28:58;;;;;;;2.03;1.13;;;;;;;33.60;21.60;100193.66;5069566;28;20032;-86
2022/07/18 11:31:25;;;;;;;2.15;1.45;;;;;;;33.15;22.60;100178.22;5069782;28;20123;-85
2022/07/18 11:33:51;;;;;;;3.63;1.38;;;;;;;33.67;22.05;100178.28;5069693;28;20028;-86
2022/07/18 11:36:19;;;;;;;4.82;1.50;;;;;;;33.84;22.05;100179.28;5069559;28;20116;-85
2022/07/18 11:38:53;;;;;;;3.45;1.50;;;;;;;32.88;24.22;100168.25;5069501;28;20032;-85
2022/07/18 11:41:20;;;;;;;1.92;1.05;;;;;;;32.71;23.40;100159.03;5069719;28;20032;-86
2022/07/18 11:43:47;;;;;;;1.13;0.90;;;;;;;32.79;21.92;100184.53;5069715;28;20086;-85
2022/07/18 11:46:15;;;;;;;2.03;1.38;;;;;;;33.00;22.75;100180.66;5069760;28;20036;-85
2022/07/18 11:48:43;;;;;;;2.10;1.15;;;;;;;33.27;26.91;100170.66;5069807;28;20062;-84
2022/07/18 11:51:13;;;;;;;1.70;1.08;;;;;;;33.59;22.23;100170.03;5069362;28;20029;-86
2022/07/18 11:53:53;;;;;;;1.98;1.27;;;;;;;33.90;23.18;100175.88;5069135;28;20475;-86
2022/07/18 11:56:21;;;;;;;3.10;1.30;;;;;;;33.37;26.13;100172.28;5051422;28;20410;-83
2022/07/18 11:58:49;;;;;;;5.50;2.38;;;;;;;33.77;21.65;100170.03;5069305;28;20036;-86
2022/07/18 12:01:15;;;;;;;1.52;1.08;;;;;;;34.02;20.68;100145.53;5069391;28;20131;-86
2022/07/18 12:03:49;;;;;;;2.97;0.90;;;;;;;34.04;21.18;100158.00;5050471;28;20032;-86
2022/07/18 12:06:19;;;;;;;1.80;1.33;;;;;;;34.47;21.55;100158.00;5069273;28;20028;-86
2022/07/18 12:08:51;;;;;;;1.80;1.17;;;;;;;33.69;21.48;100129.78;5069338;28;20044;-86
2022/07/18 12:11:35;;;;;;;4.95;1.50;;;;;;;33.61;21.80;100129.72;5068953;28;20039;-87
2022/07/18 12:14:06;;;;;;;1.20;0.77;;;;;;;34.03;22.21;100150.81;5068870;28;20125;-88
2022/07/18 12:16:39;;;;;;;3.78;2.95;;;;;;;33.81;22.65;100156.88;5069176;28;20033;-87
2022/07/18 12:19:12;;;;;;;2.40;1.30;;;;;;;33.53;22.70;100148.81;5069308;28;20031;-85
2022/07/18 12:21:42;;;;;;;6.60;3.33;;;;;;;33.53;22.08;100124.19;5050522;28;20048;-86
2022/07/18 12:24:39;;;;;;;1.83;1.30;;;;;;;33.72;23.69;100148.63;5064810;28;20596;-86
2022/07/18 12:27:09;;;;;;;3.85;1.70;;;;;;;33.07;23.16;100135.28;5072810;28;20044;-85